createdAt,value
2023-05-01T00:02:05.481Z,9.44
2023-05-01T00:04:35.524Z,9.18
2023-05-01T00:07:05.428Z,9.26
2023-05-01T00:09:34.514Z,9.02
2023-05-01T00:12:05.718Z,9.38
2023-05-01T00:14:35.554Z,9.53
2023-05-01T00:17:04.721Z,9.79
2023-05-01T00:19:33.836Z,9.47
2023-05-01T00:22:03.734Z,9.56
2023-05-01T00:24:32.984Z,9.68
2023-05-01T00:27:08.008Z,10.02
2023-05-01T00:29:37.703Z,10.25
2023-05-01T00:32:11.581Z,10.11
2023-05-01T00:34:40.854Z,10.44
2023-05-01T00:37:10.347Z,10.24
2023-05-01T00:39:39.895Z,10.17
2023-05-01T00:42:10.384Z,10.23
2023-05-01T00:44:39.722Z,10.46
2023-05-01T00:47:08.975Z,10.30
2023-05-01T00:49:43.379Z,10.24
2023-05-01T00:52:13.337Z,9.94
2023-05-01T00:54:52.208Z,10.04
2023-05-01T00:57:23.220Z,9.77
2023-05-01T00:59:53.644Z,9.51
2023-05-01T01:02:24.526Z,9.15
2023-05-01T01:04:54.115Z,9.02
2023-05-01T01:07:31.261Z,8.79
2023-05-01T01:10:15.434Z,8.61
2023-05-01T01:12:54.718Z,8.60
2023-05-01T01:15:35.628Z,8.46
2023-05-01T01:18:11.859Z,8.60
2023-05-01T01:20:51.655Z,8.51
2023-05-01T01:23:54.590Z,8.53
2023-05-01T01:26:43.188Z,8.48
2023-05-01T01:29:45.279Z,8.88
2023-05-01T01:32:41.266Z,8.92
2023-05-01T01:35:18.176Z,8.59
2023-05-01T01:37:53.346Z,8.64
2023-05-01T01:40:28.850Z,8.69
2023-05-01T01:43:04.610Z,8.52
2023-05-01T01:45:41.244Z,8.64
2023-05-01T01:48:12.878Z,8.65
2023-05-01T01:50:45.123Z,8.73
2023-05-01T01:53:19.874Z,8.70
2023-05-01T01:55:57.946Z,8.90
2023-05-01T01:58:29.912Z,9.13
2023-05-01T02:01:02.477Z,9.28
2023-05-01T02:03:34.127Z,9.43
2023-05-01T02:06:07.472Z,9.44
2023-05-01T02:08:38.611Z,9.21
2023-05-01T02:11:08.868Z,9.37
2023-05-01T02:13:41.685Z,9.43
2023-05-01T02:16:14.611Z,9.51
2023-05-01T02:18:47.458Z,9.52
2023-05-01T02:21:23.095Z,9.45
2023-05-01T02:23:55.584Z,9.57
2023-05-01T02:26:28.072Z,8.95
2023-05-01T02:28:57.592Z,9.32
2023-05-01T02:31:26.797Z,9.62
2023-05-01T02:33:56.890Z,9.22
2023-05-01T02:36:28.133Z,9.31
2023-05-01T02:38:58.065Z,9.31
2023-05-01T02:41:28.645Z,9.37
2023-05-01T02:44:04.712Z,9.01
2023-05-01T02:46:42.282Z,9.09
2023-05-01T02:49:15.401Z,9.06
2023-05-01T02:51:50.450Z,9.21
2023-05-01T02:54:19.982Z,9.17
2023-05-01T02:56:49.592Z,9.05
2023-05-01T02:59:19.176Z,9.22
2023-05-01T03:01:48.753Z,8.90
2023-05-01T03:04:18.467Z,9.21
2023-05-01T03:06:49.635Z,8.73
2023-05-01T03:09:22.196Z,8.43
2023-05-01T03:11:51.639Z,8.68
2023-05-01T03:14:21.221Z,8.68
2023-05-01T03:16:51.026Z,8.66
2023-05-01T03:19:20.253Z,8.90
2023-05-01T03:21:50.878Z,8.91
2023-05-01T03:24:20.354Z,9.04
2023-05-01T03:26:52.113Z,8.86
2023-05-01T03:29:21.698Z,8.93
2023-05-01T03:31:52.271Z,8.93
2023-05-01T03:34:22.799Z,8.97
2023-05-01T03:36:53.982Z,8.94
2023-05-01T03:39:26.690Z,8.85
2023-05-01T03:42:17.611Z,8.59
2023-05-01T03:44:48.049Z,8.37
2023-05-01T03:47:18.179Z,8.55
2023-05-01T03:49:47.613Z,8.64
2023-05-01T03:52:18.395Z,8.79
2023-05-01T03:54:48.423Z,8.95
2023-05-01T03:57:29.091Z,9.02
2023-05-01T03:59:59.587Z,8.91
2023-05-01T04:02:29.353Z,8.45
2023-05-01T04:04:59.134Z,8.30
2023-05-01T04:07:30.211Z,9.36
2023-05-01T04:09:59.813Z,9.47
2023-05-01T04:12:29.429Z,9.45
2023-05-01T04:14:58.765Z,9.47
2023-05-01T04:17:28.872Z,9.51
2023-05-01T04:19:58.620Z,9.65
2023-05-01T04:22:32.632Z,9.69
2023-05-01T04:25:02.530Z,9.73
2023-05-01T04:27:32.025Z,9.67
2023-05-01T04:30:01.356Z,9.94
2023-05-01T04:32:32.539Z,9.93
2023-05-01T04:35:02.219Z,10.09
2023-05-01T04:37:36.328Z,10.04
2023-05-01T04:40:11.760Z,10.09
2023-05-01T04:42:44.938Z,9.90
2023-05-01T04:45:16.895Z,10.15
2023-05-01T04:47:46.511Z,10.08
2023-05-01T04:50:16.300Z,10.03
2023-05-01T04:52:49.599Z,10.30
2023-05-01T04:55:23.608Z,10.66
2023-05-01T04:58:06.135Z,10.65
2023-05-01T05:01:19.585Z,9.65
2023-05-01T05:03:50.346Z,10.63
2023-05-01T05:06:21.297Z,10.67
2023-05-01T05:08:52.244Z,10.67
2023-05-01T05:11:22.112Z,10.53
2023-05-01T05:14:07.347Z,10.71
2023-05-01T05:16:36.738Z,10.66
2023-05-01T05:19:06.191Z,11.06
2023-05-01T05:21:39.587Z,10.74
2023-05-01T05:24:13.042Z,11.03
2023-05-01T05:26:42.408Z,11.05
2023-05-01T05:29:28.437Z,11.10
2023-05-01T05:31:59.841Z,10.97
2023-05-01T05:34:31.064Z,11.72
2023-05-01T05:37:10.885Z,11.39
2023-05-01T05:39:49.868Z,11.23
2023-05-01T05:42:22.334Z,11.03
2023-05-01T05:44:52.462Z,10.85
2023-05-01T05:47:22.065Z,11.15
2023-05-01T05:50:11.509Z,11.32
2023-05-01T05:52:41.858Z,10.91
2023-05-01T05:55:12.892Z,11.30
2023-05-01T05:57:46.871Z,11.26
2023-05-01T06:00:17.821Z,11.51
2023-05-01T06:02:51.636Z,11.63
2023-05-01T06:05:24.571Z,11.42
2023-05-01T06:07:58.044Z,11.56
2023-05-01T06:10:29.237Z,11.46
2023-05-01T06:13:11.800Z,11.13
2023-05-01T06:15:47.733Z,11.49
2023-05-01T06:18:18.381Z,11.25
2023-05-01T06:20:48.969Z,10.92
2023-05-01T06:23:19.472Z,11.32
2023-05-01T06:25:59.811Z,11.14
2023-05-01T06:28:29.730Z,11.26
2023-05-01T06:31:14.092Z,10.74
2023-05-01T06:33:57.874Z,11.88
2023-05-01T06:36:50.956Z,11.68
2023-05-01T06:39:20.474Z,12.86
2023-05-01T06:41:58.127Z,12.09
2023-05-01T06:47:49.338Z,11.91
2023-05-01T06:50:22.300Z,12.40
2023-05-01T06:52:51.790Z,12.54
2023-05-01T06:55:22.478Z,12.69
2023-05-01T06:58:16.020Z,12.05
2023-05-01T07:01:02.809Z,12.57
2023-05-01T07:03:38.048Z,12.12
2023-05-01T07:06:48.500Z,12.35
2023-05-01T07:09:28.740Z,12.47
2023-05-01T07:12:00.069Z,12.92
2023-05-01T07:14:31.420Z,12.88
2023-05-01T07:17:05.871Z,13.17
2023-05-01T07:19:50.003Z,13.15
2023-05-01T07:22:19.407Z,12.98
2023-05-01T07:25:16.068Z,12.41
2023-05-01T07:28:19.231Z,11.89
2023-05-01T07:31:27.643Z,13.04
2023-05-01T07:34:20.600Z,12.86
2023-05-01T07:37:34.962Z,13.32
2023-05-01T07:40:10.939Z,13.09
2023-05-01T07:42:40.833Z,12.59
2023-05-01T07:45:11.659Z,12.83
2023-05-01T07:47:43.150Z,12.98
2023-05-01T07:50:13.870Z,13.54
2023-05-01T07:52:43.543Z,13.58
2023-05-01T07:55:13.690Z,14.17
2023-05-01T07:57:43.581Z,13.87
2023-05-01T08:00:14.111Z,13.61
2023-05-01T08:02:45.821Z,14.12
2023-05-01T08:05:16.250Z,13.67
2023-05-01T08:07:46.748Z,13.66
2023-05-01T08:10:16.565Z,14.09
2023-05-01T08:12:46.043Z,13.62
2023-05-01T08:15:16.084Z,14.18
2023-05-01T08:17:48.108Z,14.13
2023-05-01T08:20:17.576Z,14.27
2023-05-01T08:22:47.257Z,14.09
2023-05-01T08:25:17.250Z,14.15
2023-05-01T08:27:47.094Z,14.23
2023-05-01T08:30:18.999Z,14.03
2023-05-01T08:32:49.754Z,14.18
2023-05-01T08:35:22.308Z,14.65
2023-05-01T08:37:52.940Z,14.23
2023-05-01T08:40:27.542Z,14.22
2023-05-01T08:42:59.059Z,14.95
2023-05-01T08:45:35.361Z,14.64
2023-05-01T08:48:11.312Z,14.83
2023-05-01T08:50:42.530Z,14.76
2023-05-01T08:53:15.481Z,14.87
2023-05-01T08:55:47.366Z,14.54
2023-05-01T08:58:20.481Z,14.17
2023-05-01T09:00:50.687Z,14.72
2023-05-01T09:03:22.437Z,14.76
2023-05-01T09:05:55.737Z,14.93
2023-05-01T09:08:25.489Z,15.44
2023-05-01T09:10:58.071Z,15.95
2023-05-01T09:13:27.814Z,15.39
2023-05-01T09:16:00.606Z,15.39
2023-05-01T09:18:31.932Z,15.44
2023-05-01T09:21:01.490Z,15.62
2023-05-01T09:23:31.377Z,16.34
2023-05-01T09:26:06.116Z,15.35
2023-05-01T09:28:43.106Z,15.19
2023-05-01T09:31:28.825Z,15.90
2023-05-01T09:34:01.512Z,16.12
2023-05-01T09:36:32.871Z,15.95
2023-05-01T09:39:03.734Z,16.66
2023-05-01T09:41:36.580Z,16.28
2023-05-01T09:44:05.866Z,16.36
2023-05-01T09:46:43.944Z,16.09
2023-05-01T09:49:15.162Z,16.74
2023-05-01T09:51:44.878Z,17.28
2023-05-01T09:54:21.244Z,16.76
2023-05-01T09:56:51.675Z,17.64
2023-05-01T09:59:22.731Z,17.48
2023-05-01T10:01:52.640Z,16.82
2023-05-01T10:04:33.303Z,17.13
2023-05-01T10:07:18.741Z,17.44
2023-05-01T10:09:48.230Z,17.95
2023-05-01T10:12:26.638Z,16.78
2023-05-01T10:14:58.373Z,17.39
2023-05-01T10:17:27.928Z,18.43
2023-05-01T10:19:59.093Z,21.40
2023-05-01T10:22:29.221Z,20.80
2023-05-01T10:24:59.936Z,22.73
2023-05-01T10:27:29.661Z,23.23
2023-05-01T10:30:05.007Z,24.58
2023-05-01T10:32:41.682Z,25.11
2023-05-01T10:35:17.931Z,23.83
2023-05-01T10:37:53.720Z,23.99
2023-05-01T10:40:51.823Z,23.12
2023-05-01T10:43:28.784Z,27.18
2023-05-01T10:46:30.252Z,28.19
2023-05-01T10:48:59.989Z,24.70
2023-05-01T10:51:31.599Z,25.20
2023-05-01T10:54:29.259Z,25.64
2023-05-01T10:57:00.205Z,27.51
2023-05-01T10:59:50.037Z,29.55
2023-05-01T11:02:26.868Z,27.90
2023-05-01T11:04:57.012Z,27.91
2023-05-01T11:07:29.001Z,26.26
2023-05-01T11:12:56.625Z,28.70
2023-05-01T11:15:34.302Z,24.68
2023-05-01T11:18:06.639Z,28.71
2023-05-01T11:20:51.093Z,25.19
2023-05-01T11:23:25.960Z,29.35
2023-05-01T11:26:08.520Z,28.03
2023-05-01T11:28:40.888Z,27.20
2023-05-01T11:31:11.694Z,29.77
2023-05-01T11:33:41.266Z,27.58
2023-05-01T11:36:10.539Z,30.50
2023-05-01T11:38:51.548Z,30.88
2023-05-01T11:41:22.592Z,30.72
2023-05-01T11:43:53.293Z,32.02
2023-05-01T11:46:27.735Z,31.01
2023-05-01T11:48:58.122Z,30.46
2023-05-01T11:51:28.334Z,31.08
2023-05-01T11:54:03.542Z,34.05
2023-05-01T11:56:35.305Z,28.80
2023-05-01T11:59:12.814Z,28.54
2023-05-01T12:01:45.974Z,29.11
2023-05-01T12:04:26.123Z,30.73
2023-05-01T12:06:56.868Z,32.89
2023-05-01T12:09:28.109Z,32.94
2023-05-01T12:11:59.837Z,33.91
2023-05-01T12:14:34.976Z,33.65
2023-05-01T12:17:09.945Z,32.48
2023-05-01T12:19:52.462Z,33.06
2023-05-01T12:22:25.033Z,32.10
2023-05-01T12:24:58.174Z,30.74
2023-05-01T12:27:28.128Z,32.96
2023-05-01T12:29:57.334Z,32.82
2023-05-01T12:32:34.113Z,33.61
2023-05-01T12:35:14.584Z,34.15
2023-05-01T12:37:43.927Z,31.89
2023-05-01T12:40:16.375Z,33.94
2023-05-01T12:42:46.027Z,33.74
2023-05-01T12:45:15.828Z,31.68
2023-05-01T12:47:44.862Z,32.59
2023-05-01T12:50:14.076Z,34.36
2023-05-01T12:52:43.685Z,30.64
2023-05-01T12:55:12.955Z,30.69
2023-05-01T12:57:55.012Z,30.10
2023-05-01T13:00:29.404Z,29.68
2023-05-01T13:03:06.417Z,32.00
2023-05-01T13:05:36.183Z,31.08
2023-05-01T13:08:06.234Z,28.67
2023-05-01T13:10:36.577Z,31.68
2023-05-01T13:13:07.389Z,30.13
2023-05-01T13:15:37.609Z,31.29
2023-05-01T13:18:07.712Z,31.31
2023-05-01T13:20:39.177Z,32.90
2023-05-01T13:23:12.564Z,33.52
2023-05-01T13:25:41.807Z,32.54
2023-05-01T13:28:18.509Z,32.66
2023-05-01T13:30:48.113Z,31.72
2023-05-01T13:33:17.558Z,32.86
2023-05-01T13:35:47.126Z,33.80
2023-05-01T13:38:23.381Z,34.01
2023-05-01T13:40:52.548Z,31.33
2023-05-01T13:43:24.058Z,32.84
2023-05-01T13:45:58.984Z,33.40
2023-05-01T13:48:28.373Z,33.56
2023-05-01T13:50:57.489Z,33.99
2023-05-01T13:53:26.674Z,30.97
2023-05-01T13:55:56.497Z,32.01
2023-05-01T13:58:29.650Z,31.52
2023-05-01T14:00:58.938Z,31.77
2023-05-01T14:03:28.581Z,31.96
2023-05-01T14:05:58.036Z,30.82
2023-05-01T14:08:29.790Z,29.39
2023-05-01T14:11:00.138Z,30.43
2023-05-01T14:13:32.034Z,29.96
2023-05-01T14:16:01.426Z,31.20
2023-05-01T14:18:30.980Z,32.71
2023-05-01T14:21:01.088Z,31.54
2023-05-01T14:23:30.656Z,32.04
2023-05-01T14:25:59.797Z,33.29
2023-05-01T14:28:31.292Z,32.26
2023-05-01T14:31:00.718Z,31.77
2023-05-01T14:33:30.522Z,32.78
2023-05-01T14:36:00.091Z,32.34
2023-05-01T14:38:38.748Z,32.97
2023-05-01T14:41:10.050Z,31.97
2023-05-01T14:43:43.305Z,29.39
2023-05-01T14:46:13.969Z,30.63
2023-05-01T14:48:43.803Z,31.05
2023-05-01T14:51:25.273Z,31.59
2023-05-01T14:53:54.953Z,31.98
2023-05-01T14:56:24.540Z,32.11
2023-05-01T14:58:55.710Z,32.66
2023-05-01T15:01:25.896Z,33.61
2023-05-01T15:03:55.656Z,33.01
2023-05-01T15:06:25.834Z,33.82
2023-05-01T15:08:57.558Z,32.69
2023-05-01T15:11:40.064Z,32.29
2023-05-01T15:14:10.853Z,31.25
2023-05-01T15:16:40.362Z,32.00
2023-05-01T15:19:09.582Z,30.91
2023-05-01T15:21:38.857Z,32.82
2023-05-01T15:24:08.473Z,30.84
2023-05-01T15:26:38.079Z,32.49
2023-05-01T15:29:07.345Z,31.77
2023-05-01T15:31:38.189Z,30.86
2023-05-01T15:34:08.496Z,30.52
2023-05-01T15:36:38.058Z,29.93
2023-05-01T15:39:11.786Z,29.74
2023-05-01T15:41:41.776Z,28.93
2023-05-01T15:44:11.775Z,23.24
2023-05-01T15:46:42.945Z,21.56
2023-05-01T15:49:12.362Z,20.88
2023-05-01T15:51:41.594Z,19.62
2023-05-01T15:54:11.819Z,19.27
2023-05-01T15:56:41.156Z,18.92
2023-05-01T15:59:10.511Z,19.02
2023-05-01T16:01:42.540Z,18.58
2023-05-01T16:04:12.842Z,18.16
2023-05-01T16:06:42.696Z,17.53
2023-05-01T16:09:12.805Z,18.00
2023-05-01T16:11:45.727Z,17.26
2023-05-01T16:14:16.876Z,17.59
2023-05-01T16:16:47.997Z,17.34
2023-05-01T16:19:18.061Z,17.32
2023-05-01T16:21:47.568Z,17.32
2023-05-01T16:24:17.819Z,16.76
2023-05-01T16:26:49.848Z,17.04
2023-05-01T16:29:20.569Z,16.92
2023-05-01T16:31:53.786Z,16.84
2023-05-01T16:34:26.342Z,16.77
2023-05-01T16:36:56.670Z,16.53
2023-05-01T16:39:26.380Z,16.53
2023-05-01T16:42:00.974Z,16.19
2023-05-01T16:44:32.758Z,16.17
2023-05-01T16:47:05.175Z,16.08
2023-05-01T16:49:34.537Z,16.06
2023-05-01T16:52:07.172Z,15.75
2023-05-01T16:54:36.837Z,15.69
2023-05-01T16:57:06.845Z,15.68
2023-05-01T16:59:37.520Z,15.60
2023-05-01T17:02:08.419Z,15.47
2023-05-01T17:04:38.205Z,15.47
2023-05-01T17:07:10.560Z,15.28
2023-05-01T17:09:43.140Z,15.08
2023-05-01T17:12:12.822Z,15.04
2023-05-01T17:14:54.307Z,15.07
2023-05-01T17:17:41.230Z,14.30
2023-05-01T17:20:18.142Z,13.54
2023-05-01T17:22:56.363Z,14.61
2023-05-01T17:25:32.332Z,14.51
2023-05-01T17:28:05.062Z,14.50
2023-05-01T17:30:37.204Z,14.35
2023-05-01T17:33:08.350Z,14.25
2023-05-01T17:35:37.945Z,14.28
2023-05-01T17:38:07.876Z,13.87
2023-05-01T17:40:37.661Z,14.04
2023-05-01T17:43:07.282Z,13.78
2023-05-01T17:45:36.747Z,13.84
2023-05-01T17:48:08.323Z,13.83
2023-05-01T17:50:38.161Z,13.81
2023-05-01T17:53:10.141Z,13.73
2023-05-01T17:55:41.369Z,13.76
2023-05-01T17:58:13.941Z,13.63
2023-05-01T18:00:44.207Z,13.36
2023-05-01T18:03:17.578Z,13.37
2023-05-01T18:05:48.923Z,13.49
2023-05-01T18:08:18.584Z,13.22
2023-05-01T18:10:54.102Z,12.93
2023-05-01T18:13:28.329Z,12.30
2023-05-01T18:16:01.452Z,12.27
2023-05-01T18:18:40.795Z,13.21
2023-05-01T18:21:10.972Z,13.03
2023-05-01T18:23:41.319Z,12.90
2023-05-01T18:26:11.576Z,12.89
2023-05-01T18:28:41.345Z,12.79
2023-05-01T18:31:12.034Z,12.41
2023-05-01T18:33:43.465Z,11.86
2023-05-01T18:36:13.709Z,12.06
2023-05-01T18:38:43.501Z,12.12
2023-05-01T18:41:16.005Z,12.52
2023-05-01T18:43:45.722Z,12.08
2023-05-01T18:46:16.061Z,12.43
2023-05-01T18:48:49.181Z,12.28
2023-05-01T18:51:20.327Z,12.32
2023-05-01T18:53:49.954Z,12.22
2023-05-01T18:56:19.649Z,12.04
2023-05-01T18:58:49.547Z,11.93
2023-05-01T19:01:33.714Z,12.05
2023-05-01T19:04:07.514Z,11.51
2023-05-01T19:06:41.003Z,11.57
2023-05-01T19:09:17.013Z,11.02
2023-05-01T19:11:49.061Z,12.00
2023-05-01T19:14:21.905Z,11.12
2023-05-01T19:16:54.894Z,11.94
2023-05-01T19:19:27.504Z,10.89
2023-05-01T19:21:58.132Z,11.88
2023-05-01T19:24:34.112Z,11.23
2023-05-01T19:27:04.514Z,11.72
2023-05-01T19:29:39.781Z,10.56
2023-05-01T19:32:13.524Z,10.95
2023-05-01T19:34:54.903Z,10.30
2023-05-01T19:37:28.635Z,11.12
2023-05-01T19:40:02.246Z,10.65
2023-05-01T19:42:35.621Z,11.49
2023-05-01T19:45:06.675Z,11.25
2023-05-01T19:47:37.803Z,11.29
2023-05-01T19:50:10.844Z,10.57
2023-05-01T19:52:43.609Z,11.22
2023-05-01T19:55:15.460Z,11.14
2023-05-01T19:57:46.977Z,11.09
2023-05-01T20:00:17.609Z,11.04
2023-05-01T20:02:47.021Z,10.89
2023-05-01T20:05:19.282Z,10.97
2023-05-01T20:07:52.734Z,10.72
2023-05-01T20:10:24.270Z,10.97
2023-05-01T20:12:53.483Z,10.76
2023-05-01T20:15:26.324Z,10.62
2023-05-01T20:17:56.013Z,10.64
2023-05-01T20:20:27.814Z,10.55
2023-05-01T20:23:10.747Z,10.17
2023-05-01T20:25:41.402Z,10.29
2023-05-01T20:28:13.065Z,10.05
2023-05-01T20:30:44.625Z,10.33
2023-05-01T20:33:15.882Z,9.74
2023-05-01T20:35:50.538Z,10.33
2023-05-01T20:38:34.384Z,10.22
2023-05-01T20:41:04.713Z,10.32
2023-05-01T20:43:37.459Z,9.32
2023-05-01T20:46:07.845Z,10.35
2023-05-01T20:48:38.722Z,8.86
2023-05-01T20:51:12.174Z,8.95
2023-05-01T20:53:49.327Z,10.41
2023-05-01T20:56:19.888Z,9.56
2023-05-01T20:58:53.476Z,9.51
2023-05-01T21:01:26.165Z,10.06
2023-05-01T21:03:56.317Z,9.84
2023-05-01T21:06:48.408Z,9.82
2023-05-01T21:09:20.781Z,9.93
2023-05-01T21:11:51.795Z,9.40
2023-05-01T21:14:23.740Z,9.19
2023-05-01T21:16:53.658Z,9.73
2023-05-01T21:19:24.254Z,9.54
2023-05-01T21:21:55.395Z,9.61
2023-05-01T21:24:25.705Z,9.54
2023-05-01T21:26:55.794Z,9.54
2023-05-01T21:29:27.689Z,9.19
2023-05-01T21:32:03.489Z,9.42
2023-05-01T21:34:33.303Z,9.37
2023-05-01T21:37:03.974Z,9.20
2023-05-01T21:39:33.557Z,8.48
2023-05-01T21:42:04.962Z,9.26
2023-05-01T21:44:34.431Z,9.13
2023-05-01T21:47:03.663Z,8.89
2023-05-01T21:49:33.076Z,9.00
2023-05-01T21:52:03.988Z,8.85
2023-05-01T21:54:34.836Z,8.78
2023-05-01T21:57:05.641Z,8.74
2023-05-01T21:59:37.471Z,8.74
2023-05-01T22:02:09.665Z,8.77
2023-05-01T22:04:40.089Z,8.86
2023-05-01T22:07:12.527Z,8.37
2023-05-01T22:09:52.290Z,8.55
2023-05-01T22:12:25.330Z,8.76
2023-05-01T22:14:55.219Z,8.55
2023-05-01T22:17:25.240Z,8.59
2023-05-01T22:19:54.957Z,8.53
2023-05-01T22:22:25.998Z,8.25
2023-05-01T22:24:55.842Z,8.46
2023-05-01T22:27:25.005Z,8.28
2023-05-01T22:29:54.138Z,8.35
2023-05-01T22:32:23.839Z,8.31
2023-05-01T22:34:53.166Z,8.25
2023-05-01T22:37:22.462Z,7.88
2023-05-01T22:39:52.983Z,8.20
2023-05-01T22:42:23.355Z,8.23
2023-05-01T22:44:54.884Z,8.06
2023-05-01T22:47:24.053Z,8.18
2023-05-01T22:49:53.429Z,8.00
2023-05-01T22:52:22.577Z,8.08
2023-05-01T22:54:53.121Z,7.98
2023-05-01T22:57:22.082Z,7.98
2023-05-01T22:59:51.298Z,8.03
2023-05-01T23:02:20.434Z,7.91
2023-05-01T23:04:49.567Z,7.90
2023-05-01T23:07:18.813Z,7.83
2023-05-01T23:09:47.932Z,7.85
2023-05-01T23:12:22.761Z,7.91
2023-05-01T23:14:52.089Z,7.81
2023-05-01T23:17:21.995Z,7.86
2023-05-01T23:19:51.769Z,7.83
2023-05-01T23:22:21.441Z,7.74
2023-05-01T23:24:50.947Z,7.80
2023-05-01T23:27:22.745Z,7.76
2023-05-01T23:29:56.582Z,7.75
2023-05-01T23:32:28.254Z,7.58
2023-05-01T23:35:02.301Z,7.25
2023-05-01T23:37:31.531Z,7.56
2023-05-01T23:40:02.300Z,7.35
2023-05-01T23:42:34.052Z,7.05
2023-05-01T23:45:03.674Z,7.38
2023-05-01T23:47:32.996Z,7.66
2023-05-01T23:50:02.811Z,7.45
2023-05-01T23:52:32.533Z,7.41
2023-05-01T23:55:01.684Z,7.41
2023-05-01T23:57:32.218Z,7.12
